Time;durP1;ratioP1;P1;durP2;ratioP2;P2;SDS_P1;SDS_P2;PMS_P1;PMS_P2;Temp;Humidity;BMP_temperature;BMP_pressure;BME280_temperature;BME280_humidity;BME280_pressure;Samples;Min_cycle;Max_cycle;Signal;HPM_P1;HPM_P2
2023/05/23 00:01:36;;;;;;;14.63;10.77;;;;;;;19.97;nan;99342.59;5069315;28;20221;-82
2023/05/23 00:04:01;;;;;;;13.27;11.43;;;;;;;19.91;nan;99344.09;5068673;28;20476;-82
2023/05/23 00:06:27;;;;;;;13.63;12.23;;;;;;;19.85;nan;99344.75;5067586;28;20483;-84
2023/05/23 00:08:52;;;;;;;14.40;11.37;;;;;;;19.78;nan;99341.06;5070416;28;20208;-82
2023/05/23 00:11:19;;;;;;;17.10;12.80;;;;;;;19.70;nan;99339.22;5067724;28;20222;-87
2023/05/23 00:13:45;;;;;;;12.43;10.40;;;;;;;19.66;nan;99344.03;5069127;28;20204;-84
2023/05/23 00:16:10;;;;;;;14.40;11.20;;;;;;;19.65;nan;99345.00;5066859;28;20899;-84
2023/05/23 00:18:37;;;;;;;14.33;11.83;;;;;;;19.62;nan;99337.31;5056234;28;20478;-84
2023/05/23 00:21:02;;;;;;;13.30;10.20;;;;;;;19.61;nan;99348.16;5057815;28;20222;-85
2023/05/23 00:23:28;;;;;;;12.73;11.43;;;;;;;19.58;nan;99351.16;5056830;28;20459;-84
2023/05/23 00:25:54;;;;;;;15.83;11.93;;;;;;;19.55;nan;99346.13;5054102;28;20275;-83
2023/05/23 00:28:21;;;;;;;16.13;10.50;;;;;;;19.55;nan;99341.66;5056931;28;20239;-84
2023/05/23 00:30:47;;;;;;;14.10;11.03;;;;;;;19.55;nan;99346.97;5058188;28;20439;-84
2023/05/23 00:33:15;;;;;;;15.33;12.00;;;;;;;19.54;nan;99350.63;5059267;28;20462;-84
2023/05/23 00:35:41;;;;;;;13.13;10.63;;;;;;;19.53;nan;99342.81;5060811;28;20485;-83
2023/05/23 00:38:07;;;;;;;11.90;10.70;;;;;;;19.51;nan;99347.44;5060721;28;20453;-83
2023/05/23 00:40:33;;;;;;;13.93;10.73;;;;;;;19.50;nan;99348.47;5060230;28;20236;-84
2023/05/23 00:42:59;;;;;;;15.13;12.63;;;;;;;19.47;nan;99346.94;5060189;28;20215;-83
2023/05/23 00:45:25;;;;;;;13.30;10.20;;;;;;;19.45;nan;99348.94;5061828;28;20480;-84
2023/05/23 00:47:51;;;;;;;13.53;10.67;;;;;;;19.43;nan;99350.91;5061060;28;20457;-84
2023/05/23 00:50:19;;;;;;;14.90;11.30;;;;;;;19.38;nan;99356.72;5059981;28;20548;-84
2023/05/23 00:52:47;;;;;;;13.77;12.20;;;;;;;19.34;nan;99355.38;5063064;28;20490;-83
2023/05/23 00:55:13;;;;;;;12.67;10.63;;;;;;;19.26;nan;99352.69;5064078;28;20470;-84
2023/05/23 00:57:43;;;;;;;12.70;10.30;;;;;;;19.22;nan;99360.13;5068052;28;20455;-86
2023/05/23 01:00:12;;;;;;;12.77;10.50;;;;;;;19.15;nan;99363.63;5062547;28;20825;-84
2023/05/23 01:02:45;;;;;;;11.02;9.80;;;;;;;19.08;nan;99355.41;5079243;28;20424;-85
2023/05/23 01:05:13;;;;;;;13.68;10.70;;;;;;;19.06;nan;99361.88;5061886;28;20479;-85
2023/05/23 01:07:40;;;;;;;12.87;11.17;;;;;;;19.05;nan;99361.06;5067480;28;20218;-84
2023/05/23 01:10:06;;;;;;;14.77;11.40;;;;;;;19.02;nan;99369.38;5059900;28;20551;-84
2023/05/23 01:12:45;;;;;;;11.70;10.00;;;;;;;18.98;nan;99368.84;5061293;28;20463;-86
2023/05/23 01:15:20;;;;;;;13.70;10.60;;;;;;;18.99;nan;99372.34;5058239;28;20480;-83
2023/05/23 01:18:08;;;;;;;11.50;10.30;;;;;;;18.98;nan;99371.53;5060379;28;21029;-84
2023/05/23 01:20:35;;;;;;;15.17;10.63;;;;;;;18.97;nan;99366.34;5060571;28;20502;-85
2023/05/23 01:23:19;;;;;;;13.20;10.47;;;;;;;18.97;nan;99366.34;5061916;28;20615;-84
2023/05/23 01:26:12;;;;;;;12.40;10.03;;;;;;;18.99;nan;99375.00;5060053;28;20506;-85
2023/05/23 01:28:44;;;;;;;11.50;10.30;;;;;;;19.03;nan;99379.00;5057442;28;20467;-84
2023/05/23 01:31:10;;;;;;;16.80;10.20;;;;;;;19.08;nan;99371.38;5058206;28;21337;-85
2023/05/23 01:33:39;;;;;;;11.07;9.87;;;;;;;19.12;nan;99377.22;5060400;28;20586;-85
2023/05/23 01:36:06;;;;;;;15.27;11.70;;;;;;;19.15;nan;99377.75;5058349;28;20486;-84
2023/05/23 01:38:31;;;;;;;12.93;9.73;;;;;;;19.15;nan;99379.59;5056239;28;20226;-85
2023/05/23 01:40:56;;;;;;;10.50;9.07;;;;;;;19.15;nan;99374.28;5061068;28;21340;-83
2023/05/23 01:43:24;;;;;;;13.10;10.23;;;;;;;19.11;nan;99362.25;5056994;28;20224;-85
2023/05/23 01:45:55;;;;;;;16.03;11.63;;;;;;;19.09;nan;99370.41;5056675;28;20236;-85
2023/05/23 01:48:21;;;;;;;14.27;9.70;;;;;;;19.08;nan;99368.72;5058130;28;20477;-84
2023/05/23 01:50:47;;;;;;;13.27;9.63;;;;;;;19.03;nan;99368.38;5057020;28;20464;-85
2023/05/23 01:53:19;;;;;;;12.97;11.17;;;;;;;18.96;nan;99372.66;5058236;28;20467;-84
2023/05/23 01:55:45;;;;;;;12.57;11.30;;;;;;;18.88;nan;99377.94;5060192;28;20586;-84
2023/05/23 01:58:11;;;;;;;15.10;11.13;;;;;;;18.79;nan;99382.34;5060652;28;20522;-84
2023/05/23 02:00:37;;;;;;;12.60;10.40;;;;;;;18.73;nan;99381.13;5060372;28;20472;-85
2023/05/23 02:03:03;;;;;;;11.93;10.00;;;;;;;18.68;nan;99374.59;5061893;28;20467;-85
2023/05/23 02:05:29;;;;;;;12.80;9.83;;;;;;;18.68;nan;99379.91;5060449;28;21045;-84
2023/05/23 02:07:54;;;;;;;15.90;9.87;;;;;;;18.69;nan;99376.28;5058198;28;20930;-84
2023/05/23 02:10:20;;;;;;;14.00;11.10;;;;;;;18.71;nan;99372.47;5058991;28;20216;-85
2023/05/23 02:12:46;;;;;;;12.27;10.90;;;;;;;18.66;nan;99376.56;5065133;28;20217;-84
2023/05/23 02:15:11;;;;;;;11.07;9.90;;;;;;;18.57;nan;99378.34;5045020;28;20474;-83
2023/05/23 02:17:37;;;;;;;12.27;10.00;;;;;;;18.49;nan;99371.13;5061367;28;20265;-83
2023/05/23 02:20:05;;;;;;;12.40;10.70;;;;;;;18.42;nan;99377.22;5065535;28;20221;-85
2023/05/23 02:22:30;;;;;;;13.50;11.67;;;;;;;18.40;nan;99377.38;5059125;28;20718;-84
2023/05/23 02:24:56;;;;;;;16.23;12.17;;;;;;;18.40;nan;99373.88;5055682;28;20483;-85
2023/05/23 02:27:22;;;;;;;13.70;11.43;;;;;;;18.39;nan;99378.38;5058924;28;20229;-83
2023/05/23 02:29:47;;;;;;;13.83;10.67;;;;;;;18.37;nan;99382.19;5058280;28;20547;-85
2023/05/23 02:32:13;;;;;;;11.10;9.83;;;;;;;18.33;nan;99379.81;5075001;28;20631;-83
2023/05/23 02:34:39;;;;;;;13.25;11.00;;;;;;;18.29;nan;99381.09;5056982;28;20489;-83
2023/05/23 02:37:05;;;;;;;12.53;9.17;;;;;;;18.23;nan;99379.06;5058471;28;20940;-85
2023/05/23 02:39:30;;;;;;;10.93;8.83;;;;;;;18.19;nan;99379.50;5057438;28;20479;-83
2023/05/23 02:41:56;;;;;;;16.13;11.53;;;;;;;18.16;nan;99385.97;5060654;28;20315;-85
2023/05/23 02:44:21;;;;;;;14.30;10.20;;;;;;;18.18;nan;99378.69;5060857;28;20337;-84
2023/05/23 02:46:46;;;;;;;15.60;10.43;;;;;;;18.19;nan;99385.66;5060293;28;20220;-84
2023/05/23 02:49:12;;;;;;;15.30;10.03;;;;;;;18.21;nan;99380.19;5060617;28;20212;-85
2023/05/23 02:51:37;;;;;;;11.83;9.87;;;;;;;18.21;nan;99377.53;5076785;28;20212;-84
2023/05/23 02:54:26;;;;;;;13.10;10.47;;;;;;;18.22;nan;99382.69;5058288;28;20235;-85
2023/05/23 02:56:54;;;;;;;12.73;10.03;;;;;;;18.20;nan;99387.34;5087145;22;20240;-82
2023/05/23 02:59:21;;;;;;;11.43;10.13;;;;;;;18.20;nan;99387.34;5048431;28;20842;-82
2023/05/23 03:01:47;;;;;;;12.07;8.83;;;;;;;18.17;nan;99376.16;5065563;28;20468;-83
2023/05/23 03:04:13;;;;;;;13.23;9.23;;;;;;;18.16;nan;99385.97;5083614;28;20526;-81
2023/05/23 03:06:38;;;;;;;10.07;9.07;;;;;;;18.14;nan;99386.09;5081775;28;20231;-81
2023/05/23 03:09:04;;;;;;;12.07;9.07;;;;;;;18.10;nan;99382.09;5062165;28;20567;-84
2023/05/23 03:11:30;;;;;;;11.60;10.10;;;;;;;18.07;nan;99384.22;5082394;28;20269;-81
2023/05/23 03:13:55;;;;;;;10.13;9.13;;;;;;;18.03;nan;99383.66;5082028;28;20292;-82
2023/05/23 03:16:22;;;;;;;10.70;9.43;;;;;;;18.00;nan;99391.94;5080384;28;20705;-83
2023/05/23 03:18:48;;;;;;;16.63;11.63;;;;;;;18.00;nan;99391.94;5081585;28;20216;-83
2023/05/23 03:21:15;;;;;;;11.10;10.00;;;;;;;18.01;nan;99387.47;5055933;28;20465;-82
2023/05/23 03:23:41;;;;;;;12.17;10.47;;;;;;;18.04;nan;99392.50;5062965;28;20474;-83
2023/05/23 03:26:06;;;;;;;12.60;10.23;;;;;;;18.05;nan;99381.72;5077580;28;20961;-82
2023/05/23 03:28:31;;;;;;;15.20;10.53;;;;;;;18.09;nan;99385.75;5051341;28;20215;-81
2023/05/23 03:30:57;;;;;;;12.50;10.40;;;;;;;18.14;nan;99391.41;5075545;28;20216;-81
2023/05/23 03:33:23;;;;;;;14.48;12.57;;;;;;;18.20;nan;99387.34;5079419;28;20470;-81
2023/05/23 03:35:49;;;;;;;16.63;13.00;;;;;;;18.24;nan;99399.34;5059411;28;20476;-81
2023/05/23 03:38:15;;;;;;;14.67;10.93;;;;;;;18.26;nan;99393.88;5079963;28;20212;-81
2023/05/23 03:40:40;;;;;;;14.13;10.60;;;;;;;18.27;nan;99393.72;5062418;28;21089;-83
2023/05/23 03:43:07;;;;;;;11.43;9.53;;;;;;;18.29;nan;99391.75;5060676;28;20306;-81
2023/05/23 03:45:35;;;;;;;14.83;11.17;;;;;;;18.31;nan;99403.06;5062064;28;20228;-83
2023/05/23 03:48:04;;;;;;;11.27;10.07;;;;;;;18.31;nan;99396.91;5062744;28;20465;-83
2023/05/23 03:50:30;;;;;;;10.70;8.77;;;;;;;18.31;nan;99399.56;5057810;28;20978;-81
2023/05/23 03:52:55;;;;;;;10.40;9.37;;;;;;;18.30;nan;99406.69;5058417;28;20703;-81
2023/05/23 03:55:23;;;;;;;11.03;9.73;;;;;;;18.31;nan;99402.22;5060401;28;20264;-81
2023/05/23 03:57:50;;;;;;;16.57;11.43;;;;;;;18.34;nan;99409.91;5063418;28;20555;-83
2023/05/23 04:00:17;;;;;;;17.80;13.10;;;;;;;18.32;nan;99411.88;5060234;28;20500;-81
2023/05/23 04:02:44;;;;;;;16.37;11.83;;;;;;;18.31;nan;99413.69;5078840;28;20475;-83
2023/05/23 04:05:12;;;;;;;14.40;12.40;;;;;;;18.32;nan;99410.03;5060663;28;21216;-83
2023/05/23 04:07:38;;;;;;;16.40;13.40;;;;;;;18.37;nan;99403.44;5057888;28;20490;-81
2023/05/23 04:10:04;;;;;;;17.23;11.97;;;;;;;18.41;nan;99405.63;5083167;28;20536;-83
2023/05/23 04:12:30;;;;;;;16.10;12.70;;;;;;;18.46;nan;99411.31;5082827;28;20511;-82
2023/05/23 04:14:56;;;;;;;19.50;12.63;;;;;;;18.50;nan;99406.56;5066385;28;20458;-83
2023/05/23 04:17:22;;;;;;;21.07;14.20;;;;;;;18.51;nan;99410.88;5066037;28;21729;-83
2023/05/23 04:19:50;;;;;;;18.50;13.60;;;;;;;18.53;nan;99411.56;5066098;28;20474;-83
2023/05/23 04:22:15;;;;;;;20.13;14.27;;;;;;;18.54;nan;99413.22;5063977;28;20499;-83
2023/05/23 04:24:42;;;;;;;20.17;14.20;;;;;;;18.56;nan;99414.75;5062718;28;20466;-84
2023/05/23 04:27:08;;;;;;;18.67;14.43;;;;;;;18.61;nan;99411.63;5066602;28;21299;-83
2023/05/23 04:29:35;;;;;;;19.57;13.60;;;;;;;18.66;nan;99412.00;5059233;28;20498;-83
2023/05/23 04:32:01;;;;;;;18.90;13.90;;;;;;;18.71;nan;99412.38;5067529;28;20465;-82
2023/05/23 04:34:27;;;;;;;18.17;14.03;;;;;;;18.77;nan;99422.44;5064626;28;20188;-83
2023/05/23 04:36:53;;;;;;;16.30;12.70;;;;;;;18.81;nan;99422.94;5065521;28;20473;-83
2023/05/23 04:39:19;;;;;;;18.63;14.40;;;;;;;18.85;nan;99426.13;5085265;28;20222;-83
2023/05/23 04:42:06;;;;;;;20.93;15.43;;;;;;;18.91;nan;99430.84;5086397;28;20449;-83
2023/05/23 04:44:45;;;;;;;19.57;15.67;;;;;;;18.99;nan;99426.41;5066030;28;20458;-83
2023/05/23 04:47:19;;;;;;;26.90;18.40;;;;;;;19.08;nan;99432.63;5068757;28;20496;-83
2023/05/23 04:50:02;;;;;;;20.70;15.07;;;;;;;19.16;nan;99432.66;5065799;28;20459;-82
2023/05/23 04:52:32;;;;;;;19.70;15.87;;;;;;;19.22;nan;99437.34;5062010;28;20560;-83
2023/05/23 04:54:57;;;;;;;26.27;17.40;;;;;;;19.26;nan;99432.56;5068437;28;20479;-82
2023/05/23 04:57:22;;;;;;;24.83;17.20;;;;;;;19.30;nan;99435.75;5066601;28;20501;-82
2023/05/23 04:59:48;;;;;;;25.43;18.10;;;;;;;19.33;nan;99432.75;5068467;28;20220;-83
2023/05/23 05:02:13;;;;;;;25.70;19.10;;;;;;;19.36;nan;99435.09;5066955;28;20269;-82
2023/05/23 05:04:39;;;;;;;25.00;18.53;;;;;;;19.39;nan;99438.31;5067224;28;20196;-84
2023/05/23 05:07:05;;;;;;;24.87;18.70;;;;;;;19.43;nan;99434.31;5060719;28;20224;-83
2023/05/23 05:09:32;;;;;;;27.83;18.17;;;;;;;19.47;nan;99434.84;5068002;28;20463;-82
2023/05/23 05:11:58;;;;;;;25.77;19.30;;;;;;;19.53;nan;99433.38;5085719;28;20471;-82
2023/05/23 05:14:26;;;;;;;26.43;19.97;;;;;;;19.57;nan;99429.38;5066905;28;20216;-83
2023/05/23 05:16:51;;;;;;;25.30;18.90;;;;;;;19.60;nan;99432.56;5084761;28;20486;-82
2023/05/23 05:19:20;;;;;;;27.07;19.60;;;;;;;19.66;nan;99434.63;5059982;28;20471;-83
2023/05/23 05:21:45;;;;;;;26.90;19.07;;;;;;;19.73;nan;99444.66;5078907;28;20553;-82
2023/05/23 05:24:11;;;;;;;23.17;18.57;;;;;;;19.74;nan;99447.16;5067856;28;20541;-83
2023/05/23 05:26:37;;;;;;;27.80;20.30;;;;;;;19.72;nan;99443.81;5058834;28;20229;-82
2023/05/23 05:29:03;;;;;;;29.33;20.17;;;;;;;19.69;nan;99453.97;5066455;28;20484;-82
2023/05/23 05:31:29;;;;;;;27.20;19.43;;;;;;;19.67;nan;99462.94;5064987;28;20489;-82
2023/05/23 05:33:54;;;;;;;33.17;19.70;;;;;;;19.63;nan;99464.25;5083022;28;21217;-82
2023/05/23 05:36:20;;;;;;;31.20;23.73;;;;;;;19.66;nan;99460.47;5054720;28;20471;-83
2023/05/23 05:38:46;;;;;;;30.70;20.77;;;;;;;19.63;nan;99461.56;5077392;28;20474;-83
2023/05/23 05:41:12;;;;;;;26.77;21.03;;;;;;;19.59;nan;99454.88;5059812;28;20458;-83
2023/05/23 05:43:42;;;;;;;29.67;21.00;;;;;;;19.57;nan;99456.03;5059069;28;20693;-82
2023/05/23 05:46:10;;;;;;;26.37;18.73;;;;;;;19.57;nan;99459.53;5050395;28;20474;-83
2023/05/23 05:48:36;;;;;;;28.77;19.77;;;;;;;19.58;nan;99458.56;5058841;28;20208;-83
2023/05/23 05:51:05;;;;;;;26.80;20.73;;;;;;;19.59;nan;99468.19;5064688;28;20525;-82
2023/05/23 05:53:32;;;;;;;27.20;21.07;;;;;;;19.57;nan;99467.53;5066797;28;20465;-83
2023/05/23 05:55:57;;;;;;;30.37;21.00;;;;;;;19.57;nan;99470.19;5070753;28;20519;-83
2023/05/23 05:58:23;;;;;;;30.97;22.00;;;;;;;19.59;nan;99470.88;5070098;28;20220;-83
2023/05/23 06:00:57;;;;;;;29.30;20.10;;;;;;;19.63;nan;99476.69;5067296;28;20225;-82
2023/05/23 06:03:23;;;;;;;33.80;21.03;;;;;;;19.65;nan;99472.06;5066511;28;21032;-83
2023/05/23 06:05:53;;;;;;;27.57;21.13;;;;;;;19.66;nan;99477.28;5067492;28;20935;-83
2023/05/23 06:08:19;;;;;;;27.97;20.27;;;;;;;19.69;nan;99475.28;5066699;28;21019;-83
2023/05/23 06:10:44;;;;;;;27.03;20.40;;;;;;;19.72;nan;99477.63;5064658;28;20251;-83
2023/05/23 06:13:09;;;;;;;27.83;20.00;;;;;;;19.74;nan;99476.47;5059193;28;20232;-82
2023/05/23 06:15:36;;;;;;;28.37;21.10;;;;;;;19.78;nan;99480.47;5067640;28;20225;-81
2023/05/23 06:18:02;;;;;;;30.33;21.60;;;;;;;19.81;nan;99479.31;5067057;28;20475;-83
2023/05/23 06:20:29;;;;;;;32.80;21.93;;;;;;;19.83;nan;99475.50;5065791;28;20229;-82
2023/05/23 06:22:58;;;;;;;32.27;21.10;;;;;;;19.86;nan;99482.34;5067102;28;20541;-81
2023/05/23 06:25:24;;;;;;;30.88;23.08;;;;;;;19.89;nan;99484.69;5065492;28;20439;-81
2023/05/23 06:27:49;;;;;;;39.43;24.63;;;;;;;19.94;nan;99482.38;5065598;28;20226;-82
2023/05/23 06:30:15;;;;;;;32.40;23.87;;;;;;;19.97;nan;99479.38;5066073;28;20221;-82
2023/05/23 06:32:40;;;;;;;30.20;23.37;;;;;;;19.99;nan;99480.06;5085839;28;20202;-81
2023/05/23 06:35:06;;;;;;;31.27;20.97;;;;;;;20.04;nan;99479.59;5085658;28;20208;-82
2023/05/23 06:37:33;;;;;;;31.80;22.90;;;;;;;20.06;nan;99482.91;5066421;28;20217;-81
2023/05/23 06:39:58;;;;;;;33.03;22.10;;;;;;;20.09;nan;99487.91;5060002;28;20523;-82
2023/05/23 06:42:24;;;;;;;28.57;23.43;;;;;;;20.12;nan;99476.97;5085386;28;20477;-81
2023/05/23 06:45:16;;;;;;;34.00;23.00;;;;;;;20.16;nan;99483.63;5079925;28;20261;-81
2023/05/23 06:47:44;;;;;;;33.73;22.47;;;;;;;20.21;nan;99488.47;5067088;28;20491;-81
2023/05/23 06:50:10;;;;;;;33.73;24.00;;;;;;;20.25;nan;99489.81;5066041;28;20447;-81
2023/05/23 06:52:36;;;;;;;31.00;21.80;;;;;;;20.29;nan;99492.00;5082920;28;20467;-82
2023/05/23 06:55:01;;;;;;;32.70;23.23;;;;;;;20.34;nan;99487.00;5064313;28;20464;-82
2023/05/23 06:57:27;;;;;;;32.37;24.27;;;;;;;20.37;nan;99485.84;5065698;28;20232;-82
2023/05/23 06:59:52;;;;;;;32.27;23.87;;;;;;;20.44;nan;99484.19;5064399;28;20216;-82
2023/05/23 07:02:19;;;;;;;32.30;23.27;;;;;;;20.52;nan;99492.22;5066154;28;20215;-83
2023/05/23 07:04:44;;;;;;;36.40;24.15;;;;;;;20.60;nan;99494.06;5057492;28;20430;-83
2023/05/23 07:07:16;;;;;;;31.70;22.63;;;;;;;20.71;nan;99496.44;5060374;28;20288;-82
2023/05/23 07:09:42;;;;;;;33.10;24.10;;;;;;;20.81;nan;99496.25;5065674;28;20975;-81
2023/05/23 07:12:13;;;;;;;32.33;23.50;;;;;;;20.90;nan;99494.41;5065385;28;20441;-81
2023/05/23 07:14:41;;;;;;;32.23;24.80;;;;;;;20.98;nan;99495.28;5063292;28;20447;-83
2023/05/23 07:17:07;;;;;;;30.10;22.07;;;;;;;21.21;nan;99494.59;5057510;28;21401;-83
2023/05/23 07:19:33;;;;;;;35.07;22.30;;;;;;;21.64;nan;99489.84;5081030;28;20533;-84
2023/05/23 07:21:59;;;;;;;35.13;23.67;;;;;;;22.08;nan;99486.66;5054675;28;20596;-83
2023/05/23 07:24:24;;;;;;;37.50;22.60;;;;;;;22.41;nan;99487.34;5061762;28;20453;-84
2023/05/23 07:26:50;;;;;;;33.40;21.67;;;;;;;22.62;nan;99485.88;5080697;28;20324;-83
2023/05/23 07:29:16;;;;;;;37.70;22.33;;;;;;;22.84;nan;99482.34;5061984;28;20208;-83
2023/05/23 07:31:44;;;;;;;36.57;22.37;;;;;;;23.00;nan;99485.94;5061352;28;20211;-84
2023/05/23 07:34:11;;;;;;;31.60;21.77;;;;;;;23.05;nan;99491.59;5061903;28;20457;-83
2023/05/23 07:36:46;;;;;;;30.00;22.10;;;;;;;23.12;nan;99485.34;5054109;28;20495;-81
2023/05/23 07:39:14;;;;;;;33.90;21.40;;;;;;;23.11;nan;99485.50;5060497;28;20524;-83
2023/05/23 07:41:39;;;;;;;36.63;24.37;;;;;;;23.07;nan;99498.44;5081420;28;20467;-83
2023/05/23 07:44:05;;;;;;;36.97;24.17;;;;;;;23.05;nan;99495.09;5064799;28;20561;-83
2023/05/23 07:46:31;;;;;;;31.00;22.50;;;;;;;23.15;nan;99495.69;5063131;28;20259;-83
2023/05/23 07:48:56;;;;;;;34.33;21.97;;;;;;;23.39;nan;99502.66;5064880;28;20450;-83
2023/05/23 07:51:22;;;;;;;32.77;21.27;;;;;;;23.54;nan;99499.97;5064663;28;20227;-83
2023/05/23 07:53:49;;;;;;;27.00;21.60;;;;;;;23.59;nan;99502.09;5063183;28;20204;-84
2023/05/23 07:56:17;;;;;;;31.37;23.43;;;;;;;23.52;nan;99502.03;5064503;28;20485;-84
2023/05/23 07:58:42;;;;;;;32.77;24.43;;;;;;;23.37;nan;99503.84;5064430;28;20491;-83
2023/05/23 08:01:08;;;;;;;28.20;21.43;;;;;;;23.21;nan;99506.69;5083067;28;20190;-83
2023/05/23 08:03:56;;;;;;;29.73;22.07;;;;;;;22.94;nan;99507.03;5065519;28;20235;-84
2023/05/23 08:06:28;;;;;;;36.40;28.17;;;;;;;22.75;nan;99515.56;5065379;28;20422;-83
2023/05/23 08:08:56;;;;;;;32.77;23.43;;;;;;;22.50;nan;99507.69;5063469;28;20220;-83
2023/05/23 08:11:22;;;;;;;33.77;22.90;;;;;;;22.30;nan;99523.38;5067855;28;20701;-83
2023/05/23 08:13:50;;;;;;;35.83;23.87;;;;;;;22.17;nan;99514.19;5067269;28;20488;-84
2023/05/23 08:16:40;;;;;;;37.20;24.30;;;;;;;21.97;nan;99519.97;5064850;28;20437;-83
2023/05/23 08:19:11;;;;;;;36.07;25.50;;;;;;;21.78;nan;99525.72;5061780;28;20485;-81
2023/05/23 08:21:37;;;;;;;32.23;24.00;;;;;;;21.62;nan;99526.59;5063747;28;20486;-83
2023/05/23 08:24:03;;;;;;;34.10;23.30;;;;;;;21.57;nan;99521.75;5062111;28;20212;-83
2023/05/23 08:26:33;;;;;;;33.20;23.97;;;;;;;21.58;nan;99519.94;5067846;28;20219;-83
2023/05/23 08:29:01;;;;;;;30.20;21.97;;;;;;;21.66;nan;99527.94;5067458;28;20429;-83
2023/05/23 08:31:27;;;;;;;37.13;23.53;;;;;;;21.71;nan;99522.94;5059623;28;20790;-84
2023/05/23 08:33:53;;;;;;;34.07;22.83;;;;;;;21.78;nan;99531.91;5066900;28;20432;-83
2023/05/23 08:36:18;;;;;;;34.63;26.23;;;;;;;21.85;nan;99527.56;5066985;28;20424;-83
2023/05/23 08:38:46;;;;;;;31.47;26.30;;;;;;;21.86;nan;99526.53;5054947;28;20247;-84
2023/05/23 08:41:22;;;;;;;32.03;24.33;;;;;;;21.84;nan;99538.41;5057961;28;20867;-83
2023/05/23 08:43:50;;;;;;;33.80;24.43;;;;;;;21.85;nan;99530.22;5065989;28;20997;-85
2023/05/23 08:46:22;;;;;;;30.20;24.93;;;;;;;21.91;nan;99538.56;5066961;28;20464;-83
2023/05/23 08:48:53;;;;;;;37.23;25.10;;;;;;;21.92;nan;99541.06;5066731;28;20513;-84
2023/05/23 08:51:25;;;;;;;37.90;24.40;;;;;;;21.83;nan;99550.94;5067830;28;20302;-83
2023/05/23 08:53:52;;;;;;;35.53;22.10;;;;;;;21.73;nan;99542.28;5066496;28;20448;-83
2023/05/23 08:56:39;;;;;;;33.40;23.90;;;;;;;21.61;nan;99551.69;5067943;28;20471;-84
2023/05/23 08:59:08;;;;;;;34.10;23.47;;;;;;;21.60;nan;99545.50;5082145;28;20458;-84
2023/05/23 09:01:34;;;;;;;38.80;24.73;;;;;;;21.65;nan;99548.47;5050621;22;20498;-81
2023/05/23 09:04:05;;;;;;;35.03;23.77;;;;;;;21.73;nan;99544.94;5004659;28;20467;-83
2023/05/23 09:06:58;;;;;;;33.80;27.17;;;;;;;21.96;nan;99550.41;5036192;28;20448;-83
2023/05/23 09:09:24;;;;;;;34.23;25.33;;;;;;;22.07;nan;99543.84;5022923;28;20578;-83
2023/05/23 09:11:50;;;;;;;32.83;22.50;;;;;;;22.15;nan;99545.66;5021211;28;21006;-82
2023/05/23 09:14:17;;;;;;;34.40;23.73;;;;;;;22.19;nan;99545.16;5020559;28;20558;-82
2023/05/23 09:16:46;;;;;;;34.63;27.50;;;;;;;22.15;nan;99546.50;5034389;28;20999;-82
2023/05/23 09:19:14;;;;;;;37.00;23.67;;;;;;;22.22;nan;99552.00;5020339;28;20585;-81
2023/05/23 09:21:45;;;;;;;33.13;22.10;;;;;;;22.41;nan;99550.75;5028042;28;20935;-83
2023/05/23 09:24:15;;;;;;;31.37;23.63;;;;;;;22.70;nan;99545.53;5019754;28;21058;-82
2023/05/23 09:26:41;;;;;;;29.80;22.93;;;;;;;22.96;nan;99550.59;5019038;28;20504;-83
2023/05/23 09:29:06;;;;;;;32.93;23.50;;;;;;;23.19;nan;99547.88;5019333;28;20294;-82
2023/05/23 09:31:32;;;;;;;33.13;22.73;;;;;;;23.37;nan;99547.56;5018303;28;20234;-82
2023/05/23 09:33:58;;;;;;;27.10;20.37;;;;;;;23.48;nan;99540.09;5018796;28;20253;-83
2023/05/23 09:36:33;;;;;;;28.73;24.03;;;;;;;23.57;nan;99545.22;5023284;28;20208;-82
2023/05/23 09:39:06;;;;;;;26.27;21.00;;;;;;;23.77;nan;99542.00;5018943;28;20471;-83
2023/05/23 09:41:34;;;;;;;29.60;21.80;;;;;;;24.02;nan;99532.66;5019987;28;20470;-84
2023/05/23 09:44:04;;;;;;;28.57;22.00;;;;;;;24.13;nan;99538.56;5037122;28;20459;-84
2023/05/23 09:46:29;;;;;;;29.50;21.70;;;;;;;24.07;nan;99532.91;5019044;28;20490;-83
2023/05/23 09:48:55;;;;;;;29.47;21.07;;;;;;;24.11;nan;99535.22;5035824;28;20470;-83
2023/05/23 09:51:22;;;;;;;29.90;21.07;;;;;;;24.29;nan;99531.13;5018528;28;20215;-84
2023/05/23 09:53:49;;;;;;;29.40;19.73;;;;;;;24.35;nan;99534.09;5021204;28;20961;-83
2023/05/23 09:56:16;;;;;;;31.43;23.07;;;;;;;24.31;nan;99536.31;5035684;28;20456;-83
2023/05/23 09:58:46;;;;;;;30.63;23.23;;;;;;;24.31;nan;99532.81;5035656;28;20346;-83
2023/05/23 10:01:12;;;;;;;23.77;19.80;;;;;;;24.33;nan;99534.28;5022490;28;20462;-83
2023/05/23 10:03:47;;;;;;;26.43;19.43;;;;;;;24.51;nan;99532.03;5015189;28;20433;-84
2023/05/23 10:06:22;;;;;;;28.30;20.17;;;;;;;24.73;nan;99529.38;5014140;28;20433;-84
2023/05/23 10:09:16;;;;;;;24.20;19.20;;;;;;;24.92;nan;99533.25;5015715;28;20863;-82
2023/05/23 10:12:19;;;;;;;23.03;18.40;;;;;;;24.99;nan;99518.03;4997939;28;20976;-83
2023/05/23 10:14:56;;;;;;;20.40;17.97;;;;;;;25.04;nan;99525.53;5015986;28;20466;-84
2023/05/23 10:17:32;;;;;;;27.63;18.77;;;;;;;25.04;nan;99515.63;5016371;28;20412;-84
2023/05/23 10:20:07;;;;;;;25.80;18.90;;;;;;;25.08;nan;99519.56;5013603;28;20521;-83
2023/05/23 10:22:36;;;;;;;23.83;18.30;;;;;;;25.13;nan;99511.75;5012533;28;20537;-82
2023/05/23 10:25:07;;;;;;;20.17;17.97;;;;;;;25.11;nan;99518.34;4996580;28;20992;-83
2023/05/23 10:27:32;;;;;;;23.67;19.43;;;;;;;24.97;nan;99519.25;5012271;28;20470;-83
2023/05/23 10:29:58;;;;;;;20.50;17.03;;;;;;;24.91;nan;99516.31;5015042;28;20443;-84
2023/05/23 10:32:26;;;;;;;26.90;18.27;;;;;;;24.92;nan;99517.16;5014567;28;20322;-84
2023/05/23 10:34:54;;;;;;;19.37;15.30;;;;;;;24.92;nan;99506.41;5015457;28;20431;-83
2023/05/23 10:37:28;;;;;;;22.03;17.10;;;;;;;24.94;nan;99518.63;5013247;28;20449;-82
2023/05/23 10:40:04;;;;;;;28.37;19.03;;;;;;;24.93;nan;99529.56;5014679;28;20481;-84
2023/05/23 10:42:48;;;;;;;20.10;16.97;;;;;;;24.77;nan;99517.22;5014256;28;20979;-83
2023/05/23 10:45:15;;;;;;;22.37;15.80;;;;;;;24.58;nan;99529.44;5011988;28;20514;-84
2023/05/23 10:47:40;;;;;;;19.10;15.20;;;;;;;24.49;nan;99528.72;5015043;28;20468;-84
2023/05/23 10:50:06;;;;;;;18.00;13.90;;;;;;;24.47;nan;99529.94;5000627;28;20459;-83
2023/05/23 10:52:39;;;;;;;20.00;15.83;;;;;;;24.47;nan;99521.88;5015141;28;20228;-83
2023/05/23 10:55:13;;;;;;;17.37;13.67;;;;;;;24.53;nan;99515.75;5014496;28;21916;-82
2023/05/23 10:57:40;;;;;;;21.20;16.50;;;;;;;24.57;nan;99517.00;5015036;28;20447;-84
2023/05/23 11:00:14;;;;;;;19.60;16.30;;;;;;;24.54;nan;99513.88;4997714;28;20451;-84
2023/05/23 11:02:52;;;;;;;18.10;14.17;;;;;;;24.55;nan;99512.84;5014309;28;20449;-84
2023/05/23 11:05:23;;;;;;;17.47;15.63;;;;;;;24.59;nan;99519.50;5012778;28;20451;-83
2023/05/23 11:08:10;;;;;;;21.83;17.33;;;;;;;24.51;nan;99521.28;5015076;28;20469;-83
2023/05/23 11:10:57;;;;;;;19.20;16.97;;;;;;;24.36;nan;99516.94;5015749;28;20820;-84
2023/05/23 11:13:23;;;;;;;25.73;18.07;;;;;;;24.40;nan;99516.38;5015073;28;20512;-84
2023/05/23 11:15:49;;;;;;;19.73;16.87;;;;;;;24.46;nan;99521.03;5015165;28;20549;-82
2023/05/23 11:18:26;;;;;;;21.30;17.20;;;;;;;24.53;nan;99507.69;5018170;28;20221;-84
2023/05/23 11:20:53;;;;;;;23.33;18.13;;;;;;;24.43;nan;99524.06;5017775;28;20477;-83
2023/05/23 11:23:20;;;;;;;21.13;17.00;;;;;;;24.42;nan;99517.03;5017687;28;20469;-82
2023/05/23 11:25:50;;;;;;;20.90;16.07;;;;;;;24.39;nan;99525.47;5017653;28;20431;-84
2023/05/23 11:28:16;;;;;;;19.87;16.53;;;;;;;24.20;nan;99513.47;5015995;28;20539;-84
2023/05/23 11:30:42;;;;;;;17.07;15.27;;;;;;;24.12;nan;99512.75;5017718;28;20464;-82
2023/05/23 11:33:15;;;;;;;25.13;17.40;;;;;;;24.17;nan;99518.38;5016860;28;20440;-84
2023/05/23 11:35:46;;;;;;;18.42;15.60;;;;;;;24.27;nan;99518.91;5017600;28;20440;-85
2023/05/23 11:38:14;;;;;;;17.57;15.77;;;;;;;24.35;nan;99518.81;5015996;28;20240;-84
2023/05/23 11:40:41;;;;;;;19.00;15.40;;;;;;;24.41;nan;99511.84;5018405;28;20460;-85